sensor_id;sensor_type;location;lat;lon;timestamp;pressure;altitude;pressure_sealevel;temperature;humidity
74958;BME280;63741;42.624;26.276;2023-07-29T00:01:57;99439.97;;;20.95;49.30
74958;BME280;63741;42.624;26.276;2023-07-29T00:04:24;99436.84;;;20.92;49.13
74958;BME280;63741;42.624;26.276;2023-07-29T00:06:51;99445.63;;;21.01;48.78
74958;BME280;63741;42.624;26.276;2023-07-29T00:09:18;99447.03;;;21.18;48.80
74958;BME280;63741;42.624;26.276;2023-07-29T00:11:45;99442.81;;;21.09;48.93
74958;BME280;63741;42.624;26.276;2023-07-29T00:14:12;99458.00;;;21.16;49.43
74958;BME280;63741;42.624;26.276;2023-07-29T00:16:39;99447.34;;;21.08;48.69
74958;BME280;63741;42.624;26.276;2023-07-29T00:19:06;99446.13;;;20.89;48.67
74958;BME280;63741;42.624;26.276;2023-07-29T00:21:33;99426.34;;;20.97;48.60
74958;BME280;63741;42.624;26.276;2023-07-29T00:24:01;99414.41;;;20.63;49.00
74958;BME280;63741;42.624;26.276;2023-07-29T00:26:28;99434.34;;;20.90;48.44
74958;BME280;63741;42.624;26.276;2023-07-29T00:28:58;99439.84;;;20.82;48.83
74958;BME280;63741;42.624;26.276;2023-07-29T00:31:26;99444.41;;;20.67;49.87
74958;BME280;63741;42.624;26.276;2023-07-29T00:33:53;99439.13;;;20.74;50.14
74958;BME280;63741;42.624;26.276;2023-07-29T00:36:20;99445.13;;;20.76;48.91
74958;BME280;63741;42.624;26.276;2023-07-29T00:38:47;99440.59;;;20.76;49.42
74958;BME280;63741;42.624;26.276;2023-07-29T00:41:15;99431.75;;;20.82;49.05
74958;BME280;63741;42.624;26.276;2023-07-29T00:43:42;99434.22;;;20.99;48.31
74958;BME280;63741;42.624;26.276;2023-07-29T00:46:09;99433.38;;;20.98;48.64
74958;BME280;63741;42.624;26.276;2023-07-29T00:48:36;99424.53;;;20.83;48.66
74958;BME280;63741;42.624;26.276;2023-07-29T00:51:04;99417.66;;;20.59;49.14
74958;BME280;63741;42.624;26.276;2023-07-29T00:53:31;99421.53;;;20.56;49.31
74958;BME280;63741;42.624;26.276;2023-07-29T00:55:58;99427.19;;;20.61;49.07
74958;BME280;63741;42.624;26.276;2023-07-29T00:58:25;99422.72;;;20.68;48.89
74958;BME280;63741;42.624;26.276;2023-07-29T01:00:53;99417.97;;;20.70;48.79
74958;BME280;63741;42.624;26.276;2023-07-29T01:03:22;99423.53;;;20.18;50.50
74958;BME280;63741;42.624;26.276;2023-07-29T01:06:07;99413.22;;;20.22;50.28
74958;BME280;63741;42.624;26.276;2023-07-29T01:08:46;99415.09;;;20.06;50.65
74958;BME280;63741;42.624;26.276;2023-07-29T01:11:38;99422.84;;;20.31;50.04
74958;BME280;63741;42.624;26.276;2023-07-29T01:16:56;99414.25;;;20.50;48.86
74958;BME280;63741;42.624;26.276;2023-07-29T01:22:08;99415.59;;;20.31;49.78
74958;BME280;63741;42.624;26.276;2023-07-29T01:24:35;99401.34;;;20.31;49.70
74958;BME280;63741;42.624;26.276;2023-07-29T01:27:02;99399.25;;;20.11;50.61
74958;BME280;63741;42.624;26.276;2023-07-29T01:29:31;99398.50;;;20.17;49.38
74958;BME280;63741;42.624;26.276;2023-07-29T01:32:04;99405.81;;;20.24;49.98
74958;BME280;63741;42.624;26.276;2023-07-29T01:34:43;99400.16;;;20.33;49.59
74958;BME280;63741;42.624;26.276;2023-07-29T01:37:16;99410.44;;;20.30;49.45
74958;BME280;63741;42.624;26.276;2023-07-29T01:39:45;99408.78;;;20.29;49.17
74958;BME280;63741;42.624;26.276;2023-07-29T01:42:13;99409.69;;;20.36;49.19
74958;BME280;63741;42.624;26.276;2023-07-29T01:44:40;99401.53;;;20.29;49.24
74958;BME280;63741;42.624;26.276;2023-07-29T01:47:10;99409.34;;;20.24;49.68
74958;BME280;63741;42.624;26.276;2023-07-29T01:49:37;99407.09;;;20.42;49.60
74958;BME280;63741;42.624;26.276;2023-07-29T01:52:04;99423.75;;;20.38;49.33
74958;BME280;63741;42.624;26.276;2023-07-29T01:54:31;99412.66;;;20.26;50.12
74958;BME280;63741;42.624;26.276;2023-07-29T01:56:58;99409.41;;;19.86;51.57
74958;BME280;63741;42.624;26.276;2023-07-29T01:59:25;99411.56;;;20.06;50.65
74958;BME280;63741;42.624;26.276;2023-07-29T02:01:52;99404.31;;;19.77;51.36
74958;BME280;63741;42.624;26.276;2023-07-29T02:04:19;99410.72;;;19.61;51.96
74958;BME280;63741;42.624;26.276;2023-07-29T02:06:46;99411.81;;;19.66;52.07
74958;BME280;63741;42.624;26.276;2023-07-29T02:09:13;99420.38;;;19.24;52.86
74958;BME280;63741;42.624;26.276;2023-07-29T02:11:40;99415.53;;;18.97;54.11
74958;BME280;63741;42.624;26.276;2023-07-29T02:14:07;99426.16;;;19.36;52.85
74958;BME280;63741;42.624;26.276;2023-07-29T02:16:34;99420.66;;;19.52;52.52
74958;BME280;63741;42.624;26.276;2023-07-29T02:19:02;99429.81;;;19.58;52.21
74958;BME280;63741;42.624;26.276;2023-07-29T02:21:30;99426.94;;;19.59;51.54
74958;BME280;63741;42.624;26.276;2023-07-29T02:23:56;99426.38;;;19.49;51.42
74958;BME280;63741;42.624;26.276;2023-07-29T02:26:23;99423.59;;;19.42;51.87
74958;BME280;63741;42.624;26.276;2023-07-29T02:28:50;99432.50;;;19.58;50.88
74958;BME280;63741;42.624;26.276;2023-07-29T02:31:21;99425.16;;;19.75;50.28
74958;BME280;63741;42.624;26.276;2023-07-29T02:33:49;99427.94;;;19.81;50.22
74958;BME280;63741;42.624;26.276;2023-07-29T02:36:17;99428.41;;;20.00;49.75
74958;BME280;63741;42.624;26.276;2023-07-29T02:38:44;99433.97;;;19.98;49.32
74958;BME280;63741;42.624;26.276;2023-07-29T02:41:12;99444.31;;;19.72;50.22
74958;BME280;63741;42.624;26.276;2023-07-29T02:43:39;99449.88;;;19.85;49.86
74958;BME280;63741;42.624;26.276;2023-07-29T02:46:08;99451.38;;;19.87;49.03
74958;BME280;63741;42.624;26.276;2023-07-29T02:48:36;99448.41;;;19.82;49.17
74958;BME280;63741;42.624;26.276;2023-07-29T02:51:03;99447.19;;;19.85;49.20
74958;BME280;63741;42.624;26.276;2023-07-29T02:53:30;99454.16;;;19.56;49.69
74958;BME280;63741;42.624;26.276;2023-07-29T02:55:57;99455.16;;;19.09;51.31
74958;BME280;63741;42.624;26.276;2023-07-29T02:58:24;99453.97;;;19.58;49.50
74958;BME280;63741;42.624;26.276;2023-07-29T03:00:53;99453.06;;;18.97;51.16
74958;BME280;63741;42.624;26.276;2023-07-29T03:03:20;99460.78;;;19.23;51.02
74958;BME280;63741;42.624;26.276;2023-07-29T03:05:47;99461.25;;;19.03;51.15
74958;BME280;63741;42.624;26.276;2023-07-29T03:08:14;99453.59;;;18.92;51.13
74958;BME280;63741;42.624;26.276;2023-07-29T03:10:41;99459.41;;;18.73;52.14
74958;BME280;63741;42.624;26.276;2023-07-29T03:13:08;99458.69;;;19.10;51.73
74958;BME280;63741;42.624;26.276;2023-07-29T03:15:35;99452.69;;;19.08;51.65
74958;BME280;63741;42.624;26.276;2023-07-29T03:18:02;99455.69;;;19.51;50.42
74958;BME280;63741;42.624;26.276;2023-07-29T03:20:29;99452.34;;;19.11;51.54
74958;BME280;63741;42.624;26.276;2023-07-29T03:22:56;99452.72;;;19.00;51.74
74958;BME280;63741;42.624;26.276;2023-07-29T03:25:23;99448.38;;;19.22;51.32
74958;BME280;63741;42.624;26.276;2023-07-29T03:27:50;99452.97;;;18.90;51.93
74958;BME280;63741;42.624;26.276;2023-07-29T03:30:21;99455.84;;;19.11;52.32
74958;BME280;63741;42.624;26.276;2023-07-29T03:32:50;99450.03;;;19.45;50.96
74958;BME280;63741;42.624;26.276;2023-07-29T03:35:17;99451.41;;;19.18;52.43
74958;BME280;63741;42.624;26.276;2023-07-29T03:37:44;99454.28;;;19.40;51.70
74958;BME280;63741;42.624;26.276;2023-07-29T03:40:11;99459.34;;;19.35;51.97
74958;BME280;63741;42.624;26.276;2023-07-29T03:42:38;99455.41;;;19.45;51.20
74958;BME280;63741;42.624;26.276;2023-07-29T03:45:05;99452.69;;;19.68;50.64
74958;BME280;63741;42.624;26.276;2023-07-29T03:47:32;99454.31;;;19.55;50.73
74958;BME280;63741;42.624;26.276;2023-07-29T03:49:59;99451.72;;;19.69;50.31
74958;BME280;63741;42.624;26.276;2023-07-29T03:52:27;99454.28;;;19.63;50.72
74958;BME280;63741;42.624;26.276;2023-07-29T03:54:54;99453.97;;;19.35;50.83
74958;BME280;63741;42.624;26.276;2023-07-29T03:57:20;99464.28;;;19.46;49.86
74958;BME280;63741;42.624;26.276;2023-07-29T03:59:47;99459.03;;;19.53;49.93
74958;BME280;63741;42.624;26.276;2023-07-29T04:02:14;99452.28;;;19.57;49.86
74958;BME280;63741;42.624;26.276;2023-07-29T04:04:42;99456.41;;;19.67;48.73
74958;BME280;63741;42.624;26.276;2023-07-29T04:07:11;99458.13;;;19.37;50.04
74958;BME280;63741;42.624;26.276;2023-07-29T04:09:38;99458.91;;;19.46;49.68
74958;BME280;63741;42.624;26.276;2023-07-29T04:12:05;99448.78;;;19.56;49.48
74958;BME280;63741;42.624;26.276;2023-07-29T04:14:32;99451.72;;;19.69;49.51
74958;BME280;63741;42.624;26.276;2023-07-29T04:16:59;99458.19;;;19.75;49.21
74958;BME280;63741;42.624;26.276;2023-07-29T04:19:26;99449.25;;;19.98;49.31
74958;BME280;63741;42.624;26.276;2023-07-29T04:21:53;99453.13;;;20.25;48.80
74958;BME280;63741;42.624;26.276;2023-07-29T04:24:20;99442.22;;;20.56;47.97
74958;BME280;63741;42.624;26.276;2023-07-29T04:26:49;99445.25;;;20.53;48.22
74958;BME280;63741;42.624;26.276;2023-07-29T04:29:16;99442.63;;;20.44;48.07
74958;BME280;63741;42.624;26.276;2023-07-29T04:31:43;99449.34;;;20.63;48.24
74958;BME280;63741;42.624;26.276;2023-07-29T04:34:10;99451.53;;;20.75;47.04
74958;BME280;63741;42.624;26.276;2023-07-29T04:36:47;99453.28;;;20.82;47.94
74958;BME280;63741;42.624;26.276;2023-07-29T04:39:15;99449.75;;;20.82;47.77
74958;BME280;63741;42.624;26.276;2023-07-29T04:41:42;99451.09;;;20.92;46.66
74958;BME280;63741;42.624;26.276;2023-07-29T04:44:09;99461.94;;;20.99;47.51
74958;BME280;63741;42.624;26.276;2023-07-29T04:46:36;99452.88;;;21.22;46.89
74958;BME280;63741;42.624;26.276;2023-07-29T04:49:04;99454.72;;;21.21;46.66
74958;BME280;63741;42.624;26.276;2023-07-29T04:51:32;99452.66;;;21.23;46.59
74958;BME280;63741;42.624;26.276;2023-07-29T04:53:59;99454.31;;;21.24;47.52
74958;BME280;63741;42.624;26.276;2023-07-29T04:56:27;99463.72;;;21.50;46.14
74958;BME280;63741;42.624;26.276;2023-07-29T04:58:53;99475.63;;;21.62;45.59
74958;BME280;63741;42.624;26.276;2023-07-29T05:01:20;99472.53;;;21.65;45.86
74958;BME280;63741;42.624;26.276;2023-07-29T05:03:48;99475.97;;;21.80;45.57
74958;BME280;63741;42.624;26.276;2023-07-29T05:06:14;99477.34;;;21.98;44.90
74958;BME280;63741;42.624;26.276;2023-07-29T05:08:41;99485.41;;;22.19;45.28
74958;BME280;63741;42.624;26.276;2023-07-29T05:11:08;99474.81;;;21.89;45.44
74958;BME280;63741;42.624;26.276;2023-07-29T05:13:36;99487.06;;;22.20;45.49
74958;BME280;63741;42.624;26.276;2023-07-29T05:16:03;99488.50;;;22.23;45.85
74958;BME280;63741;42.624;26.276;2023-07-29T05:18:32;99493.19;;;22.42;43.36
74958;BME280;63741;42.624;26.276;2023-07-29T05:21:04;99500.47;;;22.48;43.25
74958;BME280;63741;42.624;26.276;2023-07-29T05:23:31;99503.22;;;22.55;43.74
74958;BME280;63741;42.624;26.276;2023-07-29T05:26:01;99505.41;;;22.86;43.38
74958;BME280;63741;42.624;26.276;2023-07-29T05:28:28;99506.88;;;22.82;43.40
74958;BME280;63741;42.624;26.276;2023-07-29T05:31:03;99513.97;;;22.89;43.22
74958;BME280;63741;42.624;26.276;2023-07-29T05:33:30;99508.84;;;23.08;42.39
74958;BME280;63741;42.624;26.276;2023-07-29T05:35:57;99512.78;;;23.05;42.38
74958;BME280;63741;42.624;26.276;2023-07-29T05:38:24;99504.75;;;23.18;42.35
74958;BME280;63741;42.624;26.276;2023-07-29T05:40:51;99508.88;;;23.21;42.28
74958;BME280;63741;42.624;26.276;2023-07-29T05:43:18;99515.00;;;23.63;41.10
74958;BME280;63741;42.624;26.276;2023-07-29T05:45:45;99517.50;;;23.64;40.28
74958;BME280;63741;42.624;26.276;2023-07-29T05:48:12;99519.19;;;23.72;40.14
74958;BME280;63741;42.624;26.276;2023-07-29T05:50:39;99518.75;;;23.68;40.35
74958;BME280;63741;42.624;26.276;2023-07-29T05:53:06;99517.72;;;23.89;40.06
74958;BME280;63741;42.624;26.276;2023-07-29T05:55:33;99516.66;;;23.97;40.24
74958;BME280;63741;42.624;26.276;2023-07-29T05:58:00;99527.09;;;24.07;40.47
74958;BME280;63741;42.624;26.276;2023-07-29T06:00:28;99526.66;;;24.10;38.97
74958;BME280;63741;42.624;26.276;2023-07-29T06:02:55;99520.84;;;24.00;39.20
74958;BME280;63741;42.624;26.276;2023-07-29T06:05:22;99522.50;;;24.07;39.90
74958;BME280;63741;42.624;26.276;2023-07-29T06:07:50;99527.09;;;24.07;39.66
74958;BME280;63741;42.624;26.276;2023-07-29T06:10:17;99517.69;;;24.29;39.30
74958;BME280;63741;42.624;26.276;2023-07-29T06:12:46;99518.13;;;24.39;39.30
74958;BME280;63741;42.624;26.276;2023-07-29T06:15:13;99525.81;;;24.42;38.44
74958;BME280;63741;42.624;26.276;2023-07-29T06:17:41;99525.38;;;24.52;38.58
74958;BME280;63741;42.624;26.276;2023-07-29T06:20:08;99522.53;;;24.85;38.90
74958;BME280;63741;42.624;26.276;2023-07-29T06:22:35;99520.38;;;25.07;38.61
74958;BME280;63741;42.624;26.276;2023-07-29T06:25:03;99525.63;;;24.95;38.34
74958;BME280;63741;42.624;26.276;2023-07-29T06:27:30;99517.13;;;24.85;38.95
74958;BME280;63741;42.624;26.276;2023-07-29T06:29:57;99531.44;;;24.99;38.74
74958;BME280;63741;42.624;26.276;2023-07-29T06:32:24;99527.88;;;25.05;39.39
74958;BME280;63741;42.624;26.276;2023-07-29T06:34:51;99518.22;;;24.71;39.33
74958;BME280;63741;42.624;26.276;2023-07-29T06:37:20;99527.50;;;24.95;40.28
74958;BME280;63741;42.624;26.276;2023-07-29T06:39:48;99519.41;;;24.88;39.17
74958;BME280;63741;42.624;26.276;2023-07-29T06:42:15;99520.19;;;24.95;39.62
74958;BME280;63741;42.624;26.276;2023-07-29T06:44:42;99512.09;;;25.40;39.24
74958;BME280;63741;42.624;26.276;2023-07-29T06:47:09;99517.06;;;25.43;38.65
74958;BME280;63741;42.624;26.276;2023-07-29T06:49:35;99519.09;;;25.48;38.45
74958;BME280;63741;42.624;26.276;2023-07-29T06:52:03;99515.63;;;25.41;39.30
74958;BME280;63741;42.624;26.276;2023-07-29T06:54:29;99508.03;;;25.56;39.52
74958;BME280;63741;42.624;26.276;2023-07-29T06:56:57;99511.63;;;25.50;39.67
74958;BME280;63741;42.624;26.276;2023-07-29T06:59:25;99510.13;;;25.54;39.01
74958;BME280;63741;42.624;26.276;2023-07-29T07:01:52;99503.44;;;25.57;39.28
74958;BME280;63741;42.624;26.276;2023-07-29T07:04:19;99501.16;;;25.54;39.25
74958;BME280;63741;42.624;26.276;2023-07-29T07:06:46;99494.47;;;25.88;39.71
74958;BME280;63741;42.624;26.276;2023-07-29T07:09:13;99493.91;;;26.04;40.03
74958;BME280;63741;42.624;26.276;2023-07-29T07:11:40;99493.81;;;26.11;39.48
74958;BME280;63741;42.624;26.276;2023-07-29T07:14:07;99499.25;;;26.29;38.89
74958;BME280;63741;42.624;26.276;2023-07-29T07:16:34;99488.41;;;26.29;38.55
74958;BME280;63741;42.624;26.276;2023-07-29T07:19:03;99484.22;;;26.33;39.13
74958;BME280;63741;42.624;26.276;2023-07-29T07:21:30;99489.84;;;26.57;39.28
74958;BME280;63741;42.624;26.276;2023-07-29T07:23:59;99477.25;;;26.62;38.89
74958;BME280;63741;42.624;26.276;2023-07-29T07:26:26;99478.50;;;26.78;36.74
74958;BME280;63741;42.624;26.276;2023-07-29T07:28:53;99477.06;;;26.94;38.05
74958;BME280;63741;42.624;26.276;2023-07-29T07:31:19;99474.75;;;26.79;38.74
74958;BME280;63741;42.624;26.276;2023-07-29T07:33:47;99467.31;;;26.86;38.91
74958;BME280;63741;42.624;26.276;2023-07-29T07:36:14;99468.19;;;27.17;38.36
74958;BME280;63741;42.624;26.276;2023-07-29T07:38:42;99467.66;;;27.08;37.13
74958;BME280;63741;42.624;26.276;2023-07-29T07:41:09;99472.22;;;27.26;36.34
74958;BME280;63741;42.624;26.276;2023-07-29T07:43:36;99462.59;;;27.42;36.69
74958;BME280;63741;42.624;26.276;2023-07-29T07:46:03;99473.22;;;27.43;36.66
74958;BME280;63741;42.624;26.276;2023-07-29T07:48:30;99464.84;;;27.45;36.28
74958;BME280;63741;42.624;26.276;2023-07-29T07:50:59;99460.50;;;27.56;37.72
74958;BME280;63741;42.624;26.276;2023-07-29T07:53:25;99455.19;;;27.61;37.06
74958;BME280;63741;42.624;26.276;2023-07-29T07:55:53;99457.59;;;27.81;36.60
74958;BME280;63741;42.624;26.276;2023-07-29T07:58:20;99452.75;;;27.94;35.81
74958;BME280;63741;42.624;26.276;2023-07-29T08:00:47;99458.19;;;27.94;36.24
74958;BME280;63741;42.624;26.276;2023-07-29T08:03:13;99461.72;;;28.07;35.04
74958;BME280;63741;42.624;26.276;2023-07-29T08:05:40;99455.94;;;28.15;34.79
74958;BME280;63741;42.624;26.276;2023-07-29T08:08:07;99448.38;;;28.40;35.24
74958;BME280;63741;42.624;26.276;2023-07-29T08:10:34;99442.41;;;28.55;33.22
74958;BME280;63741;42.624;26.276;2023-07-29T08:13:01;99445.28;;;28.89;33.02
74958;BME280;63741;42.624;26.276;2023-07-29T08:15:28;99429.66;;;28.84;33.36
74958;BME280;63741;42.624;26.276;2023-07-29T08:17:55;99433.44;;;28.83;33.16
74958;BME280;63741;42.624;26.276;2023-07-29T08:20:22;99426.19;;;28.60;32.89
74958;BME280;63741;42.624;26.276;2023-07-29T08:22:49;99434.59;;;28.87;31.85
74958;BME280;63741;42.624;26.276;2023-07-29T08:25:16;99439.47;;;28.85;31.38
74958;BME280;63741;42.624;26.276;2023-07-29T08:27:43;99432.69;;;28.88;30.94
74958;BME280;63741;42.624;26.276;2023-07-29T08:30:10;99429.97;;;29.00;32.80
74958;BME280;63741;42.624;26.276;2023-07-29T08:32:37;99425.47;;;28.93;29.88
74958;BME280;63741;42.624;26.276;2023-07-29T08:35:04;99427.03;;;29.18;30.91
74958;BME280;63741;42.624;26.276;2023-07-29T08:37:31;99424.06;;;29.36;29.93
74958;BME280;63741;42.624;26.276;2023-07-29T08:39:59;99425.47;;;29.39;29.84
74958;BME280;63741;42.624;26.276;2023-07-29T08:42:29;99414.59;;;29.39;29.88
74958;BME280;63741;42.624;26.276;2023-07-29T08:45:04;99416.97;;;29.69;29.67
74958;BME280;63741;42.624;26.276;2023-07-29T08:47:32;99416.41;;;29.67;29.96
74958;BME280;63741;42.624;26.276;2023-07-29T08:50:01;99408.03;;;29.90;29.48
74958;BME280;63741;42.624;26.276;2023-07-29T08:52:29;99410.34;;;30.15;29.71
74958;BME280;63741;42.624;26.276;2023-07-29T08:54:58;99403.09;;;30.26;28.83
74958;BME280;63741;42.624;26.276;2023-07-29T08:57:26;99398.06;;;30.40;29.23
74958;BME280;63741;42.624;26.276;2023-07-29T08:59:54;99402.84;;;30.50;28.89
74958;BME280;63741;42.624;26.276;2023-07-29T09:02:22;99394.13;;;30.53;29.09
74958;BME280;63741;42.624;26.276;2023-07-29T09:04:49;99390.91;;;30.78;30.13
74958;BME280;63741;42.624;26.276;2023-07-29T09:07:16;99395.09;;;30.85;29.13
74958;BME280;63741;42.624;26.276;2023-07-29T09:09:43;99394.00;;;30.86;27.04
74958;BME280;63741;42.624;26.276;2023-07-29T09:12:10;99387.22;;;30.94;27.65
74958;BME280;63741;42.624;26.276;2023-07-29T09:14:38;99387.00;;;30.95;27.09
74958;BME280;63741;42.624;26.276;2023-07-29T09:17:09;99392.44;;;30.95;26.77
74958;BME280;63741;42.624;26.276;2023-07-29T09:19:37;99387.66;;;30.81;26.68
74958;BME280;63741;42.624;26.276;2023-07-29T09:22:04;99384.03;;;31.02;26.99
74958;BME280;63741;42.624;26.276;2023-07-29T09:24:31;99378.56;;;31.02;26.92
74958;BME280;63741;42.624;26.276;2023-07-29T09:26:59;99385.16;;;31.06;26.39
74958;BME280;63741;42.624;26.276;2023-07-29T09:29:28;99386.13;;;30.90;27.30
74958;BME280;63741;42.624;26.276;2023-07-29T09:32:18;99376.47;;;30.82;26.73
74958;BME280;63741;42.624;26.276;2023-07-29T09:34:45;99385.06;;;30.96;26.70
74958;BME280;63741;42.624;26.276;2023-07-29T09:37:23;99376.03;;;30.90;25.79
74958;BME280;63741;42.624;26.276;2023-07-29T09:39:50;99374.94;;;31.24;27.12
74958;BME280;63741;42.624;26.276;2023-07-29T09:42:21;99381.13;;;31.14;25.69
74958;BME280;63741;42.624;26.276;2023-07-29T09:44:49;99374.00;;;31.40;26.14
74958;BME280;63741;42.624;26.276;2023-07-29T09:47:24;99368.00;;;31.43;26.45
74958;BME280;63741;42.624;26.276;2023-07-29T09:49:52;99376.44;;;31.36;25.58
74958;BME280;63741;42.624;26.276;2023-07-29T09:52:22;99374.31;;;31.43;25.53
74958;BME280;63741;42.624;26.276;2023-07-29T09:54:49;99363.47;;;31.59;26.66
74958;BME280;63741;42.624;26.276;2023-07-29T09:57:18;99362.88;;;31.89;25.45
74958;BME280;63741;42.624;26.276;2023-07-29T10:00:03;99358.34;;;31.67;25.24
74958;BME280;63741;42.624;26.276;2023-07-29T10:02:35;99356.09;;;31.59;25.61
74958;BME280;63741;42.624;26.276;2023-07-29T10:05:03;99355.13;;;31.76;26.67
74958;BME280;63741;42.624;26.276;2023-07-29T10:07:31;99345.69;;;32.04;26.17
74958;BME280;63741;42.624;26.276;2023-07-29T10:09:58;99338.94;;;32.27;25.32
74958;BME280;63741;42.624;26.276;2023-07-29T10:12:27;99340.00;;;32.10;24.52
74958;BME280;63741;42.624;26.276;2023-07-29T10:15:03;99344.03;;;31.98;25.19
74958;BME280;63741;42.624;26.276;2023-07-29T10:17:33;99338.63;;;32.08;24.54
74958;BME280;63741;42.624;26.276;2023-07-29T10:20:01;99328.28;;;32.20;24.71
74958;BME280;63741;42.624;26.276;2023-07-29T10:22:34;99325.84;;;32.29;25.72
74958;BME280;63741;42.624;26.276;2023-07-29T10:25:22;99326.47;;;32.56;24.98
74958;BME280;63741;42.624;26.276;2023-07-29T10:27:53;99326.44;;;32.41;24.14
74958;BME280;63741;42.624;26.276;2023-07-29T10:30:24;99326.72;;;32.39;25.02
74958;BME280;63741;42.624;26.276;2023-07-29T10:32:51;99331.44;;;32.64;24.87
74958;BME280;63741;42.624;26.276;2023-07-29T10:35:19;99315.91;;;32.12;24.67
74958;BME280;63741;42.624;26.276;2023-07-29T10:37:46;99309.97;;;32.36;24.37
74958;BME280;63741;42.624;26.276;2023-07-29T10:40:17;99314.72;;;32.66;25.13
74958;BME280;63741;42.624;26.276;2023-07-29T10:43:02;99316.91;;;32.84;24.54
74958;BME280;63741;42.624;26.276;2023-07-29T10:45:37;99315.28;;;32.88;24.26
74958;BME280;63741;42.624;26.276;2023-07-29T10:51:28;99296.94;;;32.89;24.27
74958;BME280;63741;42.624;26.276;2023-07-29T10:54:10;99301.84;;;32.61;24.30
74958;BME280;63741;42.624;26.276;2023-07-29T10:56:41;99299.94;;;32.82;23.90
74958;BME280;63741;42.624;26.276;2023-07-29T11:01:40;99302.72;;;33.18;22.87
74958;BME280;63741;42.624;26.276;2023-07-29T11:18:00;99290.88;;;33.48;23.30
74958;BME280;63741;42.624;26.276;2023-07-29T11:20:28;99287.59;;;33.41;23.46
74958;BME280;63741;42.624;26.276;2023-07-29T11:22:58;99290.06;;;33.58;23.35
74958;BME280;63741;42.624;26.276;2023-07-29T11:25:28;99278.25;;;33.62;22.58
74958;BME280;63741;42.624;26.276;2023-07-29T11:27:57;99278.03;;;33.28;22.51
74958;BME280;63741;42.624;26.276;2023-07-29T11:30:24;99274.50;;;33.02;22.70
74958;BME280;63741;42.624;26.276;2023-07-29T11:32:57;99272.56;;;33.08;23.43
74958;BME280;63741;42.624;26.276;2023-07-29T11:35:25;99274.44;;;33.33;22.44
74958;BME280;63741;42.624;26.276;2023-07-29T11:37:54;99265.63;;;33.61;22.17
74958;BME280;63741;42.624;26.276;2023-07-29T11:40:23;99259.22;;;33.86;22.69
74958;BME280;63741;42.624;26.276;2023-07-29T11:42:52;99258.41;;;33.86;22.35
74958;BME280;63741;42.624;26.276;2023-07-29T11:45:20;99257.25;;;34.07;22.30
74958;BME280;63741;42.624;26.276;2023-07-29T11:47:51;99251.97;;;34.16;22.94
74958;BME280;63741;42.624;26.276;2023-07-29T11:50:18;99249.00;;;34.02;22.33
74958;BME280;63741;42.624;26.276;2023-07-29T11:52:46;99249.84;;;34.03;22.12
74958;BME280;63741;42.624;26.276;2023-07-29T11:55:14;99245.97;;;34.09;22.20
74958;BME280;63741;42.624;26.276;2023-07-29T11:57:43;99251.06;;;34.31;22.24
74958;BME280;63741;42.624;26.276;2023-07-29T12:00:11;99254.06;;;34.34;21.66
74958;BME280;63741;42.624;26.276;2023-07-29T12:02:41;99241.66;;;34.47;21.52
74958;BME280;63741;42.624;26.276;2023-07-29T12:05:13;99249.75;;;34.62;23.57
74958;BME280;63741;42.624;26.276;2023-07-29T12:07:42;99237.03;;;34.72;21.94
74958;BME280;63741;42.624;26.276;2023-07-29T12:10:10;99240.69;;;34.62;22.60
74958;BME280;63741;42.624;26.276;2023-07-29T12:12:44;99241.72;;;34.32;22.57
74958;BME280;63741;42.624;26.276;2023-07-29T12:15:11;99234.28;;;34.32;23.45
74958;BME280;63741;42.624;26.276;2023-07-29T12:17:41;99223.50;;;34.41;22.27
74958;BME280;63741;42.624;26.276;2023-07-29T12:20:09;99226.75;;;34.53;21.99
74958;BME280;63741;42.624;26.276;2023-07-29T12:22:37;99229.31;;;34.39;23.31
74958;BME280;63741;42.624;26.276;2023-07-29T12:25:05;99231.06;;;34.64;23.07
74958;BME280;63741;42.624;26.276;2023-07-29T12:27:33;99233.47;;;34.71;22.44
74958;BME280;63741;42.624;26.276;2023-07-29T12:30:01;99237.63;;;34.68;22.40
74958;BME280;63741;42.624;26.276;2023-07-29T12:32:30;99231.50;;;35.11;23.10
74958;BME280;63741;42.624;26.276;2023-07-29T12:34:57;99227.44;;;35.03;21.79
74958;BME280;63741;42.624;26.276;2023-07-29T12:37:32;99221.34;;;34.77;21.02
74958;BME280;63741;42.624;26.276;2023-07-29T12:39:59;99229.63;;;35.06;22.37
74958;BME280;63741;42.624;26.276;2023-07-29T12:42:26;99228.19;;;35.09;21.53
74958;BME280;63741;42.624;26.276;2023-07-29T12:44:53;99220.66;;;34.90;21.24
74958;BME280;63741;42.624;26.276;2023-07-29T12:47:20;99224.94;;;34.73;21.82
74958;BME280;63741;42.624;26.276;2023-07-29T12:49:47;99224.13;;;34.72;21.24
74958;BME280;63741;42.624;26.276;2023-07-29T12:52:14;99218.88;;;34.76;21.86
74958;BME280;63741;42.624;26.276;2023-07-29T12:54:41;99212.16;;;34.87;20.62
74958;BME280;63741;42.624;26.276;2023-07-29T12:57:11;99207.53;;;34.82;21.30
74958;BME280;63741;42.624;26.276;2023-07-29T12:59:38;99222.50;;;35.29;21.40
74958;BME280;63741;42.624;26.276;2023-07-29T13:02:04;99221.19;;;35.22;20.86
74958;BME280;63741;42.624;26.276;2023-07-29T13:04:33;99212.91;;;35.27;21.87
74958;BME280;63741;42.624;26.276;2023-07-29T13:07:00;99220.44;;;35.16;21.19
74958;BME280;63741;42.624;26.276;2023-07-29T13:09:27;99215.38;;;35.28;22.44
74958;BME280;63741;42.624;26.276;2023-07-29T13:11:54;99207.88;;;35.34;21.02
74958;BME280;63741;42.624;26.276;2023-07-29T13:14:21;99209.88;;;35.52;21.85
74958;BME280;63741;42.624;26.276;2023-07-29T13:16:48;99216.69;;;35.60;21.99
74958;BME280;63741;42.624;26.276;2023-07-29T13:19:15;99211.84;;;35.70;22.03
74958;BME280;63741;42.624;26.276;2023-07-29T13:21:42;99216.13;;;35.82;20.47